createdAt,value
2023-03-29T00:01:10.268Z,1.60
2023-03-29T00:04:14.001Z,1.70
2023-03-29T00:07:15.710Z,1.88
2023-03-29T00:10:17.569Z,1.92
2023-03-29T00:13:19.225Z,1.60
2023-03-29T00:16:21.039Z,1.80
2023-03-29T00:19:22.905Z,1.60
2023-03-29T00:22:24.740Z,1.75
2023-03-29T00:25:27.595Z,1.48
2023-03-29T00:28:29.345Z,2.03
2023-03-29T00:31:31.723Z,1.65
2023-03-29T00:34:36.076Z,1.90
2023-03-29T00:37:38.040Z,1.60
2023-03-29T00:40:44.820Z,1.65
2023-03-29T00:44:04.422Z,2.63
2023-03-29T00:47:06.001Z,1.70
2023-03-29T00:50:16.401Z,1.42
2023-03-29T00:53:18.835Z,1.60
2023-03-29T00:56:27.502Z,1.50
2023-03-29T00:59:33.069Z,1.73
2023-03-29T01:02:39.823Z,1.85
2023-03-29T01:05:46.568Z,2.10
2023-03-29T01:09:01.248Z,2.05
2023-03-29T01:12:13.324Z,2.25
2023-03-29T01:15:20.031Z,2.22
2023-03-29T01:18:23.023Z,1.88
2023-03-29T01:21:37.831Z,1.70
2023-03-29T01:25:15.351Z,2.10
2023-03-29T01:28:22.555Z,2.03
2023-03-29T01:31:36.860Z,2.50
2023-03-29T01:34:42.055Z,2.85
2023-03-29T01:37:57.217Z,2.95
2023-03-29T01:40:58.978Z,2.55
2023-03-29T01:44:10.131Z,2.70
2023-03-29T01:47:42.645Z,2.45
2023-03-29T01:50:49.740Z,3.10
2023-03-29T01:53:59.291Z,3.22
2023-03-29T01:57:04.620Z,2.80
2023-03-29T02:00:10.897Z,2.90
2023-03-29T02:03:17.533Z,2.63
2023-03-29T02:06:23.821Z,3.05
2023-03-29T02:09:27.071Z,2.55
2023-03-29T02:12:29.830Z,2.80
2023-03-29T02:15:31.575Z,2.58
2023-03-29T02:18:35.577Z,2.28
2023-03-29T02:21:48.307Z,2.92
2023-03-29T02:24:52.296Z,2.72
2023-03-29T02:27:56.065Z,2.88
2023-03-29T02:31:20.277Z,2.85
2023-03-29T02:34:49.407Z,2.20
2023-03-29T02:37:54.593Z,2.50
2023-03-29T02:40:58.981Z,2.80
2023-03-29T02:44:02.413Z,2.53
2023-03-29T02:47:22.366Z,2.72
2023-03-29T02:50:32.047Z,2.83
2023-03-29T02:53:42.284Z,2.40
2023-03-29T02:57:05.162Z,2.50
2023-03-29T03:00:10.303Z,3.25
2023-03-29T03:03:13.038Z,2.88
2023-03-29T03:06:15.289Z,2.53
2023-03-29T03:09:17.127Z,2.92
2023-03-29T03:12:21.513Z,2.70
2023-03-29T03:15:23.161Z,3.38
2023-03-29T03:18:24.934Z,3.33
2023-03-29T03:21:28.304Z,3.03
2023-03-29T03:24:29.925Z,3.85
2023-03-29T03:27:33.939Z,2.95
2023-03-29T03:30:35.876Z,2.65
2023-03-29T03:33:53.005Z,3.08
2023-03-29T03:37:21.020Z,3.33
2023-03-29T03:40:22.721Z,3.17
2023-03-29T03:43:24.417Z,3.03
2023-03-29T03:46:28.354Z,3.55
2023-03-29T03:49:32.458Z,3.65
2023-03-29T03:52:34.339Z,3.42
2023-03-29T03:55:36.390Z,4.00
2023-03-29T03:58:44.412Z,3.70
2023-03-29T04:01:46.306Z,3.85
2023-03-29T04:04:51.970Z,3.67
2023-03-29T04:07:56.309Z,3.40
2023-03-29T04:11:33.820Z,3.40
2023-03-29T04:14:35.678Z,3.78
2023-03-29T04:17:43.983Z,4.30
2023-03-29T04:24:08.912Z,3.97
2023-03-29T04:27:13.411Z,4.35
2023-03-29T04:30:15.225Z,4.15
2023-03-29T04:33:46.893Z,4.03
2023-03-29T04:36:52.538Z,3.72
2023-03-29T04:40:00.630Z,4.30
2023-03-29T04:43:08.306Z,4.20
2023-03-29T04:46:15.894Z,4.72
2023-03-29T04:49:35.731Z,4.80
2023-03-29T04:52:42.174Z,4.05
2023-03-29T04:55:46.506Z,4.53
2023-03-29T04:58:53.501Z,4.25
2023-03-29T05:01:56.504Z,4.50
2023-03-29T05:04:58.297Z,4.60
2023-03-29T05:08:00.388Z,4.47
2023-03-29T05:11:10.895Z,4.45
2023-03-29T05:14:12.657Z,4.45
2023-03-29T05:17:14.675Z,4.25
2023-03-29T05:20:17.574Z,4.70
2023-03-29T05:23:22.990Z,4.65
2023-03-29T05:26:51.999Z,4.80
2023-03-29T05:29:54.513Z,4.75
2023-03-29T05:33:02.674Z,4.55
2023-03-29T05:36:08.547Z,4.57
2023-03-29T05:39:14.447Z,4.50
2023-03-29T05:42:19.407Z,5.13
2023-03-29T05:45:29.909Z,4.75
2023-03-29T05:48:36.070Z,4.97
2023-03-29T05:51:38.000Z,4.70
2023-03-29T05:54:40.348Z,4.75
2023-03-29T05:57:42.327Z,5.05
2023-03-29T06:00:44.419Z,5.15
2023-03-29T06:04:06.560Z,4.97
2023-03-29T06:07:16.453Z,5.07
2023-03-29T06:10:25.195Z,5.25
2023-03-29T06:13:34.893Z,5.10
2023-03-29T06:16:38.096Z,5.05
2023-03-29T06:19:40.977Z,5.20
2023-03-29T06:22:43.559Z,5.18
2023-03-29T06:25:47.395Z,5.32
2023-03-29T06:28:51.955Z,5.28
2023-03-29T06:31:54.821Z,5.45
2023-03-29T06:35:16.648Z,4.40
2023-03-29T06:38:26.209Z,5.18
2023-03-29T06:41:44.242Z,4.25
2023-03-29T06:45:00.139Z,4.72
2023-03-29T06:48:03.416Z,4.70
2023-03-29T06:51:07.721Z,4.22
2023-03-29T06:54:09.802Z,4.60
2023-03-29T06:57:16.467Z,4.30
2023-03-29T07:00:27.883Z,4.88
2023-03-29T07:03:52.818Z,4.72
2023-03-29T07:07:02.161Z,4.05
2023-03-29T07:10:07.403Z,4.32
2023-03-29T07:13:28.293Z,4.30
2023-03-29T07:16:32.822Z,4.25
2023-03-29T07:19:44.249Z,4.47
2023-03-29T07:23:05.771Z,7.57
2023-03-29T07:26:08.205Z,4.50
2023-03-29T07:29:10.669Z,5.07
2023-03-29T07:32:12.720Z,4.30
2023-03-29T07:35:21.147Z,4.50
2023-03-29T07:38:23.067Z,4.40
2023-03-29T07:41:32.313Z,4.50
2023-03-29T07:44:41.692Z,4.72
2023-03-29T07:47:44.906Z,4.35
2023-03-29T07:50:46.884Z,4.30
2023-03-29T07:53:49.920Z,4.55
2023-03-29T07:57:17.964Z,4.25
2023-03-29T08:00:28.322Z,4.40
2023-03-29T08:03:50.270Z,4.53
2023-03-29T08:06:52.976Z,4.13
2023-03-29T08:09:56.389Z,4.30
2023-03-29T08:13:11.803Z,4.20
2023-03-29T08:16:29.451Z,4.20
2023-03-29T08:19:39.637Z,4.18
2023-03-29T08:22:43.169Z,3.63
2023-03-29T08:26:03.784Z,3.95
2023-03-29T08:29:06.652Z,3.90
2023-03-29T08:32:08.475Z,3.92
2023-03-29T08:35:10.533Z,4.65
2023-03-29T08:38:24.844Z,3.70
2023-03-29T08:41:45.056Z,4.10
2023-03-29T08:44:47.167Z,4.15
2023-03-29T08:48:11.800Z,3.42
2023-03-29T08:51:41.677Z,3.90
2023-03-29T08:54:47.173Z,4.10
2023-03-29T08:58:08.151Z,3.97
2023-03-29T09:01:11.832Z,3.47
2023-03-29T09:04:42.582Z,4.07
2023-03-29T09:08:03.038Z,3.83
2023-03-29T09:11:23.944Z,4.30
2023-03-29T09:14:52.483Z,3.78
2023-03-29T09:18:07.291Z,3.72
2023-03-29T09:21:18.188Z,4.70
2023-03-29T09:24:41.017Z,3.63
2023-03-29T09:28:04.487Z,3.97
2023-03-29T09:31:35.515Z,4.18
2023-03-29T09:34:49.414Z,3.92
2023-03-29T09:37:55.659Z,3.70
2023-03-29T09:41:05.500Z,4.03
2023-03-29T09:44:27.747Z,3.67
2023-03-29T09:47:40.972Z,4.13
2023-03-29T09:50:51.221Z,3.90
2023-03-29T09:53:56.692Z,4.32
2023-03-29T09:57:33.749Z,4.43
2023-03-29T10:00:36.903Z,4.00
2023-03-29T10:03:40.125Z,3.70
2023-03-29T10:06:52.860Z,3.70
2023-03-29T10:09:56.597Z,4.07
2023-03-29T10:13:10.142Z,4.25
2023-03-29T10:16:28.978Z,3.80
2023-03-29T10:19:35.671Z,3.40
2023-03-29T10:22:38.081Z,3.50
2023-03-29T10:25:42.595Z,3.72
2023-03-29T10:28:45.152Z,3.50
2023-03-29T10:31:48.205Z,3.97
2023-03-29T10:34:51.947Z,3.55
2023-03-29T10:37:56.503Z,3.65
2023-03-29T10:41:12.555Z,3.33
2023-03-29T10:44:38.375Z,3.80
2023-03-29T10:47:45.431Z,3.75
2023-03-29T10:50:52.965Z,4.10
2023-03-29T10:53:56.087Z,3.58
2023-03-29T10:57:10.490Z,4.53
2023-03-29T11:00:27.461Z,3.92
2023-03-29T11:04:23.833Z,4.10
2023-03-29T11:07:45.200Z,4.30
2023-03-29T11:10:54.070Z,4.63
2023-03-29T11:14:33.157Z,4.20
2023-03-29T11:17:54.837Z,4.30
2023-03-29T11:21:14.233Z,4.20
2023-03-29T11:24:33.916Z,4.18
2023-03-29T11:28:04.944Z,4.53
2023-03-29T11:34:53.373Z,4.70
2023-03-29T11:38:39.957Z,4.10
2023-03-29T11:41:44.860Z,4.63
2023-03-29T11:44:54.626Z,4.93
2023-03-29T11:48:00.333Z,4.43
2023-03-29T11:51:18.785Z,4.90
2023-03-29T11:54:45.510Z,5.75
2023-03-29T11:58:02.868Z,4.97
2023-03-29T12:01:10.721Z,4.35
2023-03-29T12:04:22.905Z,4.80
2023-03-29T12:07:36.012Z,4.75
2023-03-29T12:10:47.968Z,5.03
2023-03-29T12:14:02.741Z,4.65
2023-03-29T12:17:12.786Z,4.65
2023-03-29T12:20:38.935Z,4.38
2023-03-29T12:23:44.957Z,4.38
2023-03-29T12:26:56.949Z,4.00
2023-03-29T12:30:33.203Z,4.28
2023-03-29T12:33:43.840Z,4.32
2023-03-29T12:37:52.824Z,4.68
2023-03-29T12:41:28.812Z,4.22
2023-03-29T12:44:34.320Z,3.85
2023-03-29T12:47:53.305Z,4.10
2023-03-29T12:51:06.382Z,4.00
2023-03-29T12:54:17.199Z,4.25
2023-03-29T12:57:26.233Z,4.10
2023-03-29T13:00:42.741Z,3.67
2023-03-29T13:03:56.435Z,4.70
2023-03-29T13:07:08.920Z,4.70
2023-03-29T13:10:31.617Z,4.00
2023-03-29T13:13:37.030Z,4.40
2023-03-29T13:16:40.578Z,4.00
2023-03-29T13:19:59.858Z,3.88
2023-03-29T13:23:36.376Z,4.18
2023-03-29T13:26:53.484Z,4.38
2023-03-29T13:30:32.931Z,4.50
2023-03-29T13:34:00.019Z,4.72
2023-03-29T13:37:28.198Z,5.10
2023-03-29T13:40:29.979Z,4.65
2023-03-29T13:43:37.817Z,4.97
2023-03-29T13:46:42.605Z,5.28
2023-03-29T13:49:51.753Z,4.85
2023-03-29T13:53:04.023Z,5.13
2023-03-29T13:56:11.165Z,5.00
2023-03-29T13:59:25.413Z,5.47
2023-03-29T14:02:47.368Z,4.88
2023-03-29T14:05:58.063Z,4.80
2023-03-29T14:09:05.321Z,5.60
2023-03-29T14:12:10.955Z,5.43
2023-03-29T14:15:38.402Z,5.32
2023-03-29T14:18:42.130Z,4.72
2023-03-29T14:21:46.579Z,4.90
2023-03-29T14:24:54.043Z,4.93
2023-03-29T14:27:55.850Z,5.30
2023-03-29T14:31:01.797Z,4.97
2023-03-29T14:34:08.846Z,5.15
2023-03-29T14:37:14.822Z,4.65
2023-03-29T14:40:20.138Z,4.57
2023-03-29T14:43:24.124Z,4.25
2023-03-29T14:46:30.038Z,4.35
2023-03-29T14:49:34.727Z,4.78
2023-03-29T14:52:37.261Z,5.00
2023-03-29T14:55:40.525Z,4.55
2023-03-29T14:58:48.833Z,4.95
2023-03-29T15:01:54.161Z,4.88
2023-03-29T15:05:23.698Z,4.90
2023-03-29T15:08:38.263Z,5.10
2023-03-29T15:11:40.469Z,5.63
2023-03-29T15:14:43.829Z,5.43
2023-03-29T15:17:51.017Z,5.97
2023-03-29T15:20:59.914Z,5.60
2023-03-29T15:24:04.564Z,6.30
2023-03-29T15:27:23.725Z,6.25
2023-03-29T15:30:40.157Z,6.57
2023-03-29T15:33:44.157Z,5.68
2023-03-29T15:36:47.100Z,6.05
2023-03-29T15:39:49.144Z,6.40
2023-03-29T15:42:53.224Z,6.57
2023-03-29T15:45:57.900Z,6.40
2023-03-29T15:49:04.000Z,6.80
2023-03-29T15:52:06.761Z,6.28
2023-03-29T15:55:09.596Z,6.85
2023-03-29T15:58:22.930Z,6.30
2023-03-29T16:01:39.015Z,6.38
2023-03-29T16:04:40.841Z,6.78
2023-03-29T16:07:43.016Z,7.50
2023-03-29T16:10:47.240Z,6.95
2023-03-29T16:13:49.084Z,6.47
2023-03-29T16:17:03.566Z,6.70
2023-03-29T16:20:05.999Z,6.85
2023-03-29T16:23:14.504Z,7.65
2023-03-29T16:26:17.252Z,7.43
2023-03-29T16:29:19.387Z,7.63
2023-03-29T16:32:21.252Z,7.57
2023-03-29T16:35:32.123Z,7.38
2023-03-29T16:38:34.468Z,8.00
2023-03-29T16:41:37.445Z,7.90
2023-03-29T16:44:39.698Z,8.38
2023-03-29T16:47:48.628Z,7.65
2023-03-29T16:50:50.824Z,7.43
2023-03-29T16:53:57.846Z,8.48
2023-03-29T16:56:59.661Z,8.35
2023-03-29T17:00:02.484Z,7.85
2023-03-29T17:03:05.509Z,8.70
2023-03-29T17:06:12.751Z,8.88
2023-03-29T17:09:15.310Z,9.05
2023-03-29T17:12:17.589Z,8.70
2023-03-29T17:15:19.770Z,9.02
2023-03-29T17:18:23.795Z,8.77
2023-03-29T17:21:26.528Z,8.57
2023-03-29T17:24:33.873Z,8.95
2023-03-29T17:27:38.140Z,9.05
2023-03-29T17:30:41.181Z,8.73
2023-03-29T17:33:43.289Z,9.43
2023-03-29T17:36:49.117Z,9.48
2023-03-29T17:39:51.111Z,10.57
2023-03-29T17:42:53.428Z,11.43
2023-03-29T17:45:55.971Z,9.55
2023-03-29T17:49:00.289Z,10.60
2023-03-29T17:52:03.016Z,10.05
2023-03-29T17:55:11.324Z,10.32
2023-03-29T17:58:13.232Z,10.25
2023-03-29T18:01:24.759Z,9.90
2023-03-29T18:04:26.826Z,9.35
2023-03-29T18:07:29.927Z,10.10
2023-03-29T18:10:32.677Z,10.13
2023-03-29T18:13:36.083Z,9.35
2023-03-29T18:16:38.706Z,10.23
2023-03-29T18:19:44.006Z,9.23
2023-03-29T18:22:46.124Z,9.65
2023-03-29T18:25:48.394Z,9.63
2023-03-29T18:28:52.391Z,9.48
2023-03-29T18:31:54.937Z,9.25
2023-03-29T18:34:59.565Z,9.77
2023-03-29T18:38:06.704Z,9.93
2023-03-29T18:41:14.238Z,9.23
2023-03-29T18:44:16.643Z,9.65
2023-03-29T18:47:18.750Z,9.18
2023-03-29T18:50:23.470Z,8.93
2023-03-29T18:53:28.545Z,8.75
2023-03-29T18:56:32.311Z,10.48
2023-03-29T18:59:39.396Z,12.57
2023-03-29T19:02:43.741Z,12.52
2023-03-29T19:05:53.030Z,12.70
2023-03-29T19:09:06.632Z,11.35
2023-03-29T19:12:58.715Z,13.20
2023-03-29T19:15:39.982Z,11.00
2023-03-29T19:18:45.053Z,10.37
2023-03-29T19:29:53.150Z,9.93
2023-03-29T19:33:10.284Z,9.25
2023-03-29T19:36:16.352Z,9.52
2023-03-29T19:39:18.367Z,9.27
2023-03-29T19:42:31.940Z,9.38
2023-03-29T19:45:42.968Z,9.75
2023-03-29T19:49:05.161Z,8.75
2023-03-29T19:52:08.105Z,8.80
2023-03-29T19:55:10.929Z,9.35
2023-03-29T19:58:15.530Z,9.65
2023-03-29T20:01:32.161Z,9.75
2023-03-29T20:04:36.815Z,10.70
2023-03-29T20:07:41.445Z,10.30
2023-03-29T20:10:44.142Z,10.60
2023-03-29T20:13:45.953Z,9.35
2023-03-29T20:16:49.899Z,10.45
2023-03-29T20:19:55.664Z,9.98
2023-03-29T20:23:04.662Z,8.98
2023-03-29T20:26:10.534Z,9.85
2023-03-29T20:29:14.672Z,10.18
2023-03-29T20:32:16.405Z,9.48
2023-03-29T20:35:18.028Z,9.30
2023-03-29T20:38:19.809Z,9.52
2023-03-29T20:41:23.056Z,9.27
2023-03-29T20:44:26.419Z,9.32
2023-03-29T20:47:29.602Z,10.45
2023-03-29T20:50:33.698Z,10.40
2023-03-29T20:53:35.952Z,9.75
2023-03-29T20:56:40.244Z,14.32
2023-03-29T20:59:43.704Z,18.88
2023-03-29T21:02:46.984Z,16.77
2023-03-29T21:05:55.220Z,10.82
2023-03-29T21:08:57.521Z,9.63
2023-03-29T21:11:59.191Z,8.85
2023-03-29T21:15:02.426Z,8.90
2023-03-29T21:18:07.850Z,9.30
2023-03-29T21:21:10.942Z,8.50
2023-03-29T21:24:15.607Z,8.93
2023-03-29T21:27:18.362Z,8.73
2023-03-29T21:30:20.256Z,8.32
2023-03-29T21:33:22.298Z,7.50
2023-03-29T21:36:24.580Z,7.95
2023-03-29T21:39:29.195Z,7.40
2023-03-29T21:42:30.780Z,7.90
2023-03-29T21:45:32.459Z,6.97
2023-03-29T21:48:34.120Z,6.53
2023-03-29T21:51:36.074Z,5.50
2023-03-29T21:54:37.932Z,6.32
2023-03-29T21:57:39.901Z,5.95
2023-03-29T22:00:41.647Z,5.72
2023-03-29T22:03:44.393Z,5.90
2023-03-29T22:06:46.597Z,5.82
2023-03-29T22:09:48.465Z,5.75
2023-03-29T22:12:51.761Z,6.38
2023-03-29T22:16:01.220Z,5.10
2023-03-29T22:19:04.200Z,5.38
2023-03-29T22:22:06.584Z,5.75
2023-03-29T22:25:12.031Z,5.47
2023-03-29T22:28:13.999Z,5.55
2023-03-29T22:31:17.635Z,5.78
2023-03-29T22:34:19.558Z,5.25
2023-03-29T22:37:22.621Z,5.50
2023-03-29T22:40:27.637Z,4.93
2023-03-29T22:43:29.264Z,5.97
2023-03-29T22:46:31.876Z,5.95
2023-03-29T22:49:33.687Z,5.68
2023-03-29T22:52:36.470Z,5.40
2023-03-29T22:55:37.998Z,5.57
2023-03-29T22:58:39.789Z,5.57
2023-03-29T23:01:41.606Z,5.65
2023-03-29T23:04:45.509Z,5.43
2023-03-29T23:07:47.358Z,5.57
2023-03-29T23:11:23.732Z,5.60
2023-03-29T23:15:01.323Z,5.18
2023-03-29T23:18:04.718Z,7.10
2023-03-29T23:21:07.832Z,5.38
2023-03-29T23:24:10.603Z,5.53
2023-03-29T23:27:15.032Z,5.43
2023-03-29T23:30:18.542Z,5.63
2023-03-29T23:33:21.907Z,5.07
2023-03-29T23:36:25.683Z,5.53
2023-03-29T23:39:27.598Z,5.30
2023-03-29T23:42:29.780Z,5.28
2023-03-29T23:45:31.854Z,5.15
2023-03-29T23:48:34.311Z,5.90
2023-03-29T23:51:36.822Z,4.90
2023-03-29T23:54:39.539Z,4.80
2023-03-29T23:57:41.966Z,4.97
